sensor_id;sensor_type;location;lat;lon;timestamp;P1;durP1;ratioP1;P2;durP2;ratioP2
53245;SDS011;39569;51.090;-1.786;2023-05-23T00:00:50;11.73;;;9.90;;
53245;SDS011;39569;51.090;-1.786;2023-05-23T00:03:16;10.45;;;9.38;;
53245;SDS011;39569;51.090;-1.786;2023-05-23T00:05:46;9.55;;;8.05;;
53245;SDS011;39569;51.090;-1.786;2023-05-23T00:08:14;10.57;;;8.40;;
53245;SDS011;39569;51.090;-1.786;2023-05-23T00:10:41;10.32;;;9.43;;
53245;SDS011;39569;51.090;-1.786;2023-05-23T00:13:09;12.43;;;10.35;;
53245;SDS011;39569;51.090;-1.786;2023-05-23T00:15:37;9.73;;;8.82;;
53245;SDS011;39569;51.090;-1.786;2023-05-23T00:18:05;15.93;;;10.02;;
53245;SDS011;39569;51.090;-1.786;2023-05-23T00:20:33;10.80;;;8.32;;
53245;SDS011;39569;51.090;-1.786;2023-05-23T00:23:00;8.93;;;8.05;;
53245;SDS011;39569;51.090;-1.786;2023-05-23T00:25:27;10.38;;;9.40;;
53245;SDS011;39569;51.090;-1.786;2023-05-23T00:27:58;10.60;;;9.55;;
53245;SDS011;39569;51.090;-1.786;2023-05-23T00:30:26;8.85;;;8.05;;
53245;SDS011;39569;51.090;-1.786;2023-05-23T00:32:53;10.10;;;8.82;;
53245;SDS011;39569;51.090;-1.786;2023-05-23T00:35:20;10.05;;;9.05;;
53245;SDS011;39569;51.090;-1.786;2023-05-23T00:37:47;10.77;;;9.70;;
53245;SDS011;39569;51.090;-1.786;2023-05-23T00:40:16;11.93;;;10.30;;
53245;SDS011;39569;51.090;-1.786;2023-05-23T00:42:42;12.10;;;9.60;;
53245;SDS011;39569;51.090;-1.786;2023-05-23T00:45:09;12.52;;;8.95;;
53245;SDS011;39569;51.090;-1.786;2023-05-23T00:47:39;9.13;;;8.23;;
53245;SDS011;39569;51.090;-1.786;2023-05-23T00:50:06;14.27;;;10.10;;
53245;SDS011;39569;51.090;-1.786;2023-05-23T00:52:35;11.27;;;9.95;;
53245;SDS011;39569;51.090;-1.786;2023-05-23T00:55:03;10.38;;;9.48;;
53245;SDS011;39569;51.090;-1.786;2023-05-23T00:57:32;10.88;;;9.88;;
53245;SDS011;39569;51.090;-1.786;2023-05-23T00:59:59;12.05;;;9.52;;
53245;SDS011;39569;51.090;-1.786;2023-05-23T01:02:27;10.85;;;9.82;;
53245;SDS011;39569;51.090;-1.786;2023-05-23T01:04:58;12.23;;;10.80;;
53245;SDS011;39569;51.090;-1.786;2023-05-23T01:07:26;15.75;;;10.43;;
53245;SDS011;39569;51.090;-1.786;2023-05-23T01:09:53;13.93;;;10.13;;
53245;SDS011;39569;51.090;-1.786;2023-05-23T01:12:22;13.00;;;10.63;;
53245;SDS011;39569;51.090;-1.786;2023-05-23T01:14:55;12.10;;;10.85;;
53245;SDS011;39569;51.090;-1.786;2023-05-23T01:20:02;12.50;;;10.18;;
53245;SDS011;39569;51.090;-1.786;2023-05-23T01:22:41;10.60;;;9.52;;
53245;SDS011;39569;51.090;-1.786;2023-05-23T01:25:22;16.33;;;10.77;;
53245;SDS011;39569;51.090;-1.786;2023-05-23T01:27:59;15.45;;;11.23;;
53245;SDS011;39569;51.090;-1.786;2023-05-23T01:30:29;14.30;;;11.40;;
53245;SDS011;39569;51.090;-1.786;2023-05-23T01:32:58;12.00;;;10.88;;
53245;SDS011;39569;51.090;-1.786;2023-05-23T01:35:26;11.73;;;10.18;;
53245;SDS011;39569;51.090;-1.786;2023-05-23T01:37:53;14.10;;;10.88;;
53245;SDS011;39569;51.090;-1.786;2023-05-23T01:40:20;11.88;;;9.88;;
53245;SDS011;39569;51.090;-1.786;2023-05-23T01:42:47;13.80;;;11.65;;
53245;SDS011;39569;51.090;-1.786;2023-05-23T01:45:16;11.60;;;10.60;;
53245;SDS011;39569;51.090;-1.786;2023-05-23T01:47:43;13.02;;;11.45;;
53245;SDS011;39569;51.090;-1.786;2023-05-23T01:50:12;15.05;;;12.43;;
53245;SDS011;39569;51.090;-1.786;2023-05-23T01:52:40;21.52;;;12.50;;
53245;SDS011;39569;51.090;-1.786;2023-05-23T01:55:07;13.10;;;11.10;;
53245;SDS011;39569;51.090;-1.786;2023-05-23T01:57:36;14.65;;;12.60;;
53245;SDS011;39569;51.090;-1.786;2023-05-23T02:00:04;12.48;;;11.23;;
53245;SDS011;39569;51.090;-1.786;2023-05-23T02:02:33;19.30;;;12.40;;
53245;SDS011;39569;51.090;-1.786;2023-05-23T02:05:00;14.32;;;11.80;;
53245;SDS011;39569;51.090;-1.786;2023-05-23T02:07:26;13.77;;;11.75;;
53245;SDS011;39569;51.090;-1.786;2023-05-23T02:09:53;12.88;;;11.65;;
53245;SDS011;39569;51.090;-1.786;2023-05-23T02:12:20;13.80;;;12.35;;
53245;SDS011;39569;51.090;-1.786;2023-05-23T02:14:48;13.40;;;12.10;;
53245;SDS011;39569;51.090;-1.786;2023-05-23T02:17:16;17.92;;;12.35;;
53245;SDS011;39569;51.090;-1.786;2023-05-23T02:19:44;14.20;;;12.88;;
53245;SDS011;39569;51.090;-1.786;2023-05-23T02:22:11;14.63;;;13.23;;
53245;SDS011;39569;51.090;-1.786;2023-05-23T02:24:37;13.23;;;11.93;;
53245;SDS011;39569;51.090;-1.786;2023-05-23T02:27:04;13.02;;;11.68;;
53245;SDS011;39569;51.090;-1.786;2023-05-23T02:29:31;13.68;;;11.85;;
53245;SDS011;39569;51.090;-1.786;2023-05-23T02:31:58;16.25;;;13.68;;
53245;SDS011;39569;51.090;-1.786;2023-05-23T02:34:25;15.38;;;12.43;;
53245;SDS011;39569;51.090;-1.786;2023-05-23T02:36:53;6.97;;;6.03;;
53245;SDS011;39569;51.090;-1.786;2023-05-23T02:39:20;16.20;;;12.32;;
53245;SDS011;39569;51.090;-1.786;2023-05-23T02:41:46;12.75;;;11.45;;
53245;SDS011;39569;51.090;-1.786;2023-05-23T02:44:13;20.17;;;12.63;;
53245;SDS011;39569;51.090;-1.786;2023-05-23T02:46:40;12.88;;;11.68;;
53245;SDS011;39569;51.090;-1.786;2023-05-23T02:49:07;14.80;;;13.20;;
53245;SDS011;39569;51.090;-1.786;2023-05-23T02:51:34;15.35;;;12.90;;
53245;SDS011;39569;51.090;-1.786;2023-05-23T02:54:02;15.50;;;13.88;;
53245;SDS011;39569;51.090;-1.786;2023-05-23T02:56:29;14.10;;;12.63;;
53245;SDS011;39569;51.090;-1.786;2023-05-23T02:58:56;16.85;;;12.75;;
53245;SDS011;39569;51.090;-1.786;2023-05-23T03:01:22;18.10;;;13.35;;
53245;SDS011;39569;51.090;-1.786;2023-05-23T03:03:49;17.17;;;12.50;;
53245;SDS011;39569;51.090;-1.786;2023-05-23T03:06:16;18.00;;;11.90;;
53245;SDS011;39569;51.090;-1.786;2023-05-23T03:08:43;13.95;;;11.13;;
53245;SDS011;39569;51.090;-1.786;2023-05-23T03:11:11;13.40;;;12.05;;
53245;SDS011;39569;51.090;-1.786;2023-05-23T03:13:38;16.27;;;13.00;;
53245;SDS011;39569;51.090;-1.786;2023-05-23T03:16:04;14.88;;;12.95;;
53245;SDS011;39569;51.090;-1.786;2023-05-23T03:18:31;13.35;;;6.55;;
53245;SDS011;39569;51.090;-1.786;2023-05-23T03:20:58;16.65;;;12.48;;
53245;SDS011;39569;51.090;-1.786;2023-05-23T03:23:25;17.45;;;12.88;;
53245;SDS011;39569;51.090;-1.786;2023-05-23T03:25:52;13.57;;;12.27;;
53245;SDS011;39569;51.090;-1.786;2023-05-23T03:28:20;15.13;;;13.45;;
53245;SDS011;39569;51.090;-1.786;2023-05-23T03:30:46;21.23;;;13.02;;
53245;SDS011;39569;51.090;-1.786;2023-05-23T03:33:13;15.68;;;13.32;;
53245;SDS011;39569;51.090;-1.786;2023-05-23T03:35:40;14.82;;;12.82;;
53245;SDS011;39569;51.090;-1.786;2023-05-23T03:38:08;6.25;;;5.70;;
53245;SDS011;39569;51.090;-1.786;2023-05-23T03:40:35;18.70;;;13.25;;
53245;SDS011;39569;51.090;-1.786;2023-05-23T03:43:02;14.30;;;13.00;;
53245;SDS011;39569;51.090;-1.786;2023-05-23T03:45:31;8.13;;;6.72;;
53245;SDS011;39569;51.090;-1.786;2023-05-23T03:47:58;16.70;;;13.23;;
53245;SDS011;39569;51.090;-1.786;2023-05-23T03:50:25;6.97;;;6.30;;
53245;SDS011;39569;51.090;-1.786;2023-05-23T03:52:52;15.63;;;14.02;;
53245;SDS011;39569;51.090;-1.786;2023-05-23T03:55:19;14.48;;;13.02;;
53245;SDS011;39569;51.090;-1.786;2023-05-23T03:57:48;17.05;;;14.45;;
53245;SDS011;39569;51.090;-1.786;2023-05-23T04:00:16;15.25;;;13.75;;
53245;SDS011;39569;51.090;-1.786;2023-05-23T04:02:44;19.98;;;14.27;;
53245;SDS011;39569;51.090;-1.786;2023-05-23T04:05:11;17.52;;;14.35;;
53245;SDS011;39569;51.090;-1.786;2023-05-23T04:07:38;8.00;;;6.40;;
53245;SDS011;39569;51.090;-1.786;2023-05-23T04:10:06;7.20;;;5.65;;
53245;SDS011;39569;51.090;-1.786;2023-05-23T04:12:34;16.70;;;14.40;;
53245;SDS011;39569;51.090;-1.786;2023-05-23T04:15:00;17.05;;;15.15;;
53245;SDS011;39569;51.090;-1.786;2023-05-23T04:17:27;10.38;;;6.57;;
53245;SDS011;39569;51.090;-1.786;2023-05-23T04:19:56;16.65;;;14.63;;
53245;SDS011;39569;51.090;-1.786;2023-05-23T04:22:23;6.60;;;5.93;;
53245;SDS011;39569;51.090;-1.786;2023-05-23T04:24:50;13.23;;;7.40;;
53245;SDS011;39569;51.090;-1.786;2023-05-23T04:27:17;19.95;;;14.32;;
53245;SDS011;39569;51.090;-1.786;2023-05-23T04:29:44;16.52;;;14.75;;
53245;SDS011;39569;51.090;-1.786;2023-05-23T04:32:10;8.88;;;6.75;;
53245;SDS011;39569;51.090;-1.786;2023-05-23T04:34:38;18.25;;;15.88;;
53245;SDS011;39569;51.090;-1.786;2023-05-23T04:37:07;25.70;;;8.00;;
53245;SDS011;39569;51.090;-1.786;2023-05-23T04:39:34;9.88;;;7.20;;
53245;SDS011;39569;51.090;-1.786;2023-05-23T04:42:01;16.05;;;14.32;;
53245;SDS011;39569;51.090;-1.786;2023-05-23T04:44:28;17.98;;;14.52;;
53245;SDS011;39569;51.090;-1.786;2023-05-23T04:46:54;10.27;;;5.78;;
53245;SDS011;39569;51.090;-1.786;2023-05-23T04:49:21;7.50;;;6.40;;
53245;SDS011;39569;51.090;-1.786;2023-05-23T04:51:48;19.45;;;14.57;;
53245;SDS011;39569;51.090;-1.786;2023-05-23T04:54:16;9.23;;;7.82;;
53245;SDS011;39569;51.090;-1.786;2023-05-23T04:56:43;17.30;;;14.43;;
53245;SDS011;39569;51.090;-1.786;2023-05-23T04:59:10;6.90;;;6.10;;
53245;SDS011;39569;51.090;-1.786;2023-05-23T05:01:37;18.17;;;15.55;;
53245;SDS011;39569;51.090;-1.786;2023-05-23T05:04:04;14.32;;;6.18;;
53245;SDS011;39569;51.090;-1.786;2023-05-23T05:06:31;20.33;;;15.15;;
53245;SDS011;39569;51.090;-1.786;2023-05-23T05:08:58;15.15;;;13.00;;
53245;SDS011;39569;51.090;-1.786;2023-05-23T05:11:26;15.10;;;13.70;;
53245;SDS011;39569;51.090;-1.786;2023-05-23T05:13:53;15.00;;;13.70;;
53245;SDS011;39569;51.090;-1.786;2023-05-23T05:16:20;16.23;;;14.63;;
53245;SDS011;39569;51.090;-1.786;2023-05-23T05:18:47;14.60;;;13.02;;
53245;SDS011;39569;51.090;-1.786;2023-05-23T05:21:14;14.70;;;13.38;;
53245;SDS011;39569;51.090;-1.786;2023-05-23T05:23:41;13.45;;;12.07;;
53245;SDS011;39569;51.090;-1.786;2023-05-23T05:26:08;15.75;;;14.10;;
53245;SDS011;39569;51.090;-1.786;2023-05-23T05:28:36;15.02;;;12.35;;
53245;SDS011;39569;51.090;-1.786;2023-05-23T05:31:03;9.13;;;6.18;;
53245;SDS011;39569;51.090;-1.786;2023-05-23T05:33:30;14.57;;;11.20;;
53245;SDS011;39569;51.090;-1.786;2023-05-23T05:36:00;16.23;;;12.43;;
53245;SDS011;39569;51.090;-1.786;2023-05-23T05:38:27;13.73;;;12.43;;
53245;SDS011;39569;51.090;-1.786;2023-05-23T05:40:53;4.97;;;4.53;;
53245;SDS011;39569;51.090;-1.786;2023-05-23T05:43:20;13.18;;;11.23;;
53245;SDS011;39569;51.090;-1.786;2023-05-23T05:45:48;12.60;;;11.40;;
53245;SDS011;39569;51.090;-1.786;2023-05-23T05:48:15;12.48;;;11.23;;
53245;SDS011;39569;51.090;-1.786;2023-05-23T05:50:42;20.13;;;10.95;;
53245;SDS011;39569;51.090;-1.786;2023-05-23T05:53:09;16.67;;;10.55;;
53245;SDS011;39569;51.090;-1.786;2023-05-23T05:55:36;16.85;;;12.07;;
53245;SDS011;39569;51.090;-1.786;2023-05-23T05:58:03;11.65;;;10.55;;
53245;SDS011;39569;51.090;-1.786;2023-05-23T06:00:30;12.05;;;10.85;;
53245;SDS011;39569;51.090;-1.786;2023-05-23T06:02:58;13.98;;;10.80;;
53245;SDS011;39569;51.090;-1.786;2023-05-23T06:05:25;16.58;;;10.30;;
53245;SDS011;39569;51.090;-1.786;2023-05-23T06:07:52;11.55;;;10.32;;
53245;SDS011;39569;51.090;-1.786;2023-05-23T06:10:18;12.00;;;10.70;;
53245;SDS011;39569;51.090;-1.786;2023-05-23T06:12:45;10.82;;;9.60;;
53245;SDS011;39569;51.090;-1.786;2023-05-23T06:15:12;11.48;;;8.90;;
53245;SDS011;39569;51.090;-1.786;2023-05-23T06:17:40;9.80;;;8.77;;
53245;SDS011;39569;51.090;-1.786;2023-05-23T06:20:08;11.30;;;10.15;;
53245;SDS011;39569;51.090;-1.786;2023-05-23T06:22:36;15.23;;;10.88;;
53245;SDS011;39569;51.090;-1.786;2023-05-23T06:25:03;11.60;;;8.77;;
53245;SDS011;39569;51.090;-1.786;2023-05-23T06:27:31;13.20;;;9.57;;
53245;SDS011;39569;51.090;-1.786;2023-05-23T06:29:58;13.23;;;9.82;;
53245;SDS011;39569;51.090;-1.786;2023-05-23T06:32:24;9.57;;;8.77;;
53245;SDS011;39569;51.090;-1.786;2023-05-23T06:34:51;12.35;;;11.13;;
53245;SDS011;39569;51.090;-1.786;2023-05-23T06:37:19;11.00;;;9.90;;
53245;SDS011;39569;51.090;-1.786;2023-05-23T06:39:46;10.90;;;8.73;;
53245;SDS011;39569;51.090;-1.786;2023-05-23T06:42:13;14.25;;;8.57;;
53245;SDS011;39569;51.090;-1.786;2023-05-23T06:44:40;11.13;;;8.43;;
53245;SDS011;39569;51.090;-1.786;2023-05-23T06:47:07;13.52;;;8.32;;
53245;SDS011;39569;51.090;-1.786;2023-05-23T06:49:34;8.98;;;8.10;;
53245;SDS011;39569;51.090;-1.786;2023-05-23T06:52:00;9.35;;;7.93;;
53245;SDS011;39569;51.090;-1.786;2023-05-23T06:54:28;9.05;;;7.97;;
53245;SDS011;39569;51.090;-1.786;2023-05-23T06:56:55;8.30;;;7.45;;
53245;SDS011;39569;51.090;-1.786;2023-05-23T06:59:22;9.23;;;6.90;;
53245;SDS011;39569;51.090;-1.786;2023-05-23T07:01:49;10.35;;;7.60;;
53245;SDS011;39569;51.090;-1.786;2023-05-23T07:04:16;13.35;;;7.22;;
53245;SDS011;39569;51.090;-1.786;2023-05-23T07:06:42;11.27;;;6.88;;
53245;SDS011;39569;51.090;-1.786;2023-05-23T07:09:09;12.27;;;6.50;;
53245;SDS011;39569;51.090;-1.786;2023-05-23T07:11:38;9.07;;;6.22;;
53245;SDS011;39569;51.090;-1.786;2023-05-23T07:14:05;7.78;;;6.07;;
53245;SDS011;39569;51.090;-1.786;2023-05-23T07:16:32;8.23;;;5.70;;
53245;SDS011;39569;51.090;-1.786;2023-05-23T07:19:00;9.23;;;6.05;;
53245;SDS011;39569;51.090;-1.786;2023-05-23T07:21:27;8.88;;;5.47;;
53245;SDS011;39569;51.090;-1.786;2023-05-23T07:23:53;7.85;;;5.80;;
53245;SDS011;39569;51.090;-1.786;2023-05-23T07:26:20;8.23;;;5.97;;
53245;SDS011;39569;51.090;-1.786;2023-05-23T07:28:48;8.20;;;6.38;;
53245;SDS011;39569;51.090;-1.786;2023-05-23T07:31:15;10.35;;;6.07;;
53245;SDS011;39569;51.090;-1.786;2023-05-23T07:33:42;8.98;;;5.43;;
53245;SDS011;39569;51.090;-1.786;2023-05-23T07:36:09;7.95;;;5.28;;
53245;SDS011;39569;51.090;-1.786;2023-05-23T07:38:36;8.55;;;4.13;;
53245;SDS011;39569;51.090;-1.786;2023-05-23T07:41:03;5.78;;;4.03;;
53245;SDS011;39569;51.090;-1.786;2023-05-23T07:43:29;14.90;;;5.47;;
53245;SDS011;39569;51.090;-1.786;2023-05-23T07:45:58;7.88;;;5.03;;
53245;SDS011;39569;51.090;-1.786;2023-05-23T07:48:24;11.23;;;5.68;;
53245;SDS011;39569;51.090;-1.786;2023-05-23T07:50:51;6.20;;;4.45;;
53245;SDS011;39569;51.090;-1.786;2023-05-23T07:53:19;12.57;;;4.93;;
53245;SDS011;39569;51.090;-1.786;2023-05-23T07:55:46;8.43;;;5.00;;
53245;SDS011;39569;51.090;-1.786;2023-05-23T07:58:13;5.65;;;4.45;;
53245;SDS011;39569;51.090;-1.786;2023-05-23T08:00:40;4.85;;;4.40;;
53245;SDS011;39569;51.090;-1.786;2023-05-23T08:03:09;6.03;;;4.45;;
53245;SDS011;39569;51.090;-1.786;2023-05-23T08:05:37;4.82;;;4.32;;
53245;SDS011;39569;51.090;-1.786;2023-05-23T08:08:04;3.80;;;3.45;;
53245;SDS011;39569;51.090;-1.786;2023-05-23T08:10:31;7.00;;;4.10;;
53245;SDS011;39569;51.090;-1.786;2023-05-23T08:12:58;7.72;;;4.40;;
53245;SDS011;39569;51.090;-1.786;2023-05-23T08:15:28;7.80;;;4.10;;
53245;SDS011;39569;51.090;-1.786;2023-05-23T08:17:55;8.90;;;4.43;;
53245;SDS011;39569;51.090;-1.786;2023-05-23T08:20:24;4.68;;;4.20;;
53245;SDS011;39569;51.090;-1.786;2023-05-23T08:22:55;6.30;;;5.75;;
53245;SDS011;39569;51.090;-1.786;2023-05-23T08:25:23;7.90;;;5.45;;
53245;SDS011;39569;51.090;-1.786;2023-05-23T08:27:50;5.15;;;4.65;;
53245;SDS011;39569;51.090;-1.786;2023-05-23T08:30:17;7.03;;;4.25;;
53245;SDS011;39569;51.090;-1.786;2023-05-23T08:32:47;5.68;;;4.10;;
53245;SDS011;39569;51.090;-1.786;2023-05-23T08:35:14;5.10;;;4.45;;
53245;SDS011;39569;51.090;-1.786;2023-05-23T08:37:42;4.22;;;3.88;;
53245;SDS011;39569;51.090;-1.786;2023-05-23T08:40:12;6.93;;;4.88;;
53245;SDS011;39569;51.090;-1.786;2023-05-23T08:42:43;4.88;;;4.13;;
53245;SDS011;39569;51.090;-1.786;2023-05-23T08:45:10;7.10;;;5.07;;
53245;SDS011;39569;51.090;-1.786;2023-05-23T08:47:37;14.20;;;5.45;;
53245;SDS011;39569;51.090;-1.786;2023-05-23T08:50:07;9.27;;;4.63;;
53245;SDS011;39569;51.090;-1.786;2023-05-23T08:52:37;7.72;;;4.65;;
53245;SDS011;39569;51.090;-1.786;2023-05-23T08:55:12;15.13;;;4.45;;
53245;SDS011;39569;51.090;-1.786;2023-05-23T08:57:39;7.07;;;5.25;;
53245;SDS011;39569;51.090;-1.786;2023-05-23T09:00:08;6.20;;;5.43;;
53245;SDS011;39569;51.090;-1.786;2023-05-23T09:02:39;9.73;;;4.53;;
53245;SDS011;39569;51.090;-1.786;2023-05-23T09:05:07;8.95;;;4.60;;
53245;SDS011;39569;51.090;-1.786;2023-05-23T09:07:35;5.47;;;4.68;;
53245;SDS011;39569;51.090;-1.786;2023-05-23T09:10:04;6.35;;;5.28;;
53245;SDS011;39569;51.090;-1.786;2023-05-23T09:12:32;9.45;;;4.63;;
53245;SDS011;39569;51.090;-1.786;2023-05-23T09:15:01;8.52;;;6.65;;
53245;SDS011;39569;51.090;-1.786;2023-05-23T09:17:28;16.70;;;8.38;;
53245;SDS011;39569;51.090;-1.786;2023-05-23T09:19:56;10.18;;;6.68;;
53245;SDS011;39569;51.090;-1.786;2023-05-23T09:22:23;10.00;;;6.35;;
53245;SDS011;39569;51.090;-1.786;2023-05-23T09:24:51;14.02;;;5.95;;
53245;SDS011;39569;51.090;-1.786;2023-05-23T09:27:20;8.68;;;4.63;;
53245;SDS011;39569;51.090;-1.786;2023-05-23T09:29:47;8.63;;;5.88;;
53245;SDS011;39569;51.090;-1.786;2023-05-23T09:32:15;7.25;;;4.93;;
53245;SDS011;39569;51.090;-1.786;2023-05-23T09:34:53;9.50;;;5.05;;
53245;SDS011;39569;51.090;-1.786;2023-05-23T09:37:21;7.80;;;4.45;;
53245;SDS011;39569;51.090;-1.786;2023-05-23T09:39:48;6.40;;;4.68;;
53245;SDS011;39569;51.090;-1.786;2023-05-23T09:42:20;5.75;;;4.28;;
53245;SDS011;39569;51.090;-1.786;2023-05-23T09:44:48;5.43;;;4.05;;
53245;SDS011;39569;51.090;-1.786;2023-05-23T09:47:14;10.00;;;4.00;;
53245;SDS011;39569;51.090;-1.786;2023-05-23T09:49:42;4.18;;;2.88;;
53245;SDS011;39569;51.090;-1.786;2023-05-23T09:52:09;9.23;;;5.25;;
53245;SDS011;39569;51.090;-1.786;2023-05-23T09:54:36;6.90;;;4.30;;
53245;SDS011;39569;51.090;-1.786;2023-05-23T09:57:03;8.07;;;4.45;;
53245;SDS011;39569;51.090;-1.786;2023-05-23T09:59:37;7.22;;;3.92;;
53245;SDS011;39569;51.090;-1.786;2023-05-23T10:02:06;6.38;;;4.10;;
53245;SDS011;39569;51.090;-1.786;2023-05-23T10:04:36;6.07;;;4.35;;
53245;SDS011;39569;51.090;-1.786;2023-05-23T10:07:06;6.65;;;4.43;;
53245;SDS011;39569;51.090;-1.786;2023-05-23T10:09:39;4.80;;;4.18;;
53245;SDS011;39569;51.090;-1.786;2023-05-23T10:15:10;3.83;;;3.50;;
53245;SDS011;39569;51.090;-1.786;2023-05-23T10:17:45;5.35;;;4.38;;
53245;SDS011;39569;51.090;-1.786;2023-05-23T10:20:20;9.52;;;4.85;;
53245;SDS011;39569;51.090;-1.786;2023-05-23T10:22:50;13.63;;;5.15;;
53245;SDS011;39569;51.090;-1.786;2023-05-23T10:25:18;6.47;;;4.43;;
53245;SDS011;39569;51.090;-1.786;2023-05-23T10:27:45;6.75;;;3.95;;
53245;SDS011;39569;51.090;-1.786;2023-05-23T10:30:15;6.70;;;3.78;;
53245;SDS011;39569;51.090;-1.786;2023-05-23T10:32:42;8.93;;;3.95;;
53245;SDS011;39569;51.090;-1.786;2023-05-23T10:35:13;7.03;;;5.03;;
53245;SDS011;39569;51.090;-1.786;2023-05-23T10:37:47;8.85;;;3.60;;
53245;SDS011;39569;51.090;-1.786;2023-05-23T10:40:22;8.20;;;4.00;;
53245;SDS011;39569;51.090;-1.786;2023-05-23T10:42:58;7.38;;;4.30;;
53245;SDS011;39569;51.090;-1.786;2023-05-23T10:45:38;4.68;;;3.97;;
53245;SDS011;39569;51.090;-1.786;2023-05-23T10:48:16;15.57;;;4.45;;
53245;SDS011;39569;51.090;-1.786;2023-05-23T10:50:49;6.60;;;4.68;;
53245;SDS011;39569;51.090;-1.786;2023-05-23T10:53:27;8.55;;;4.78;;
53245;SDS011;39569;51.090;-1.786;2023-05-23T10:55:55;6.13;;;3.97;;
53245;SDS011;39569;51.090;-1.786;2023-05-23T10:58:22;8.85;;;4.57;;
53245;SDS011;39569;51.090;-1.786;2023-05-23T11:00:51;5.82;;;3.90;;
53245;SDS011;39569;51.090;-1.786;2023-05-23T11:03:29;6.70;;;5.65;;
53245;SDS011;39569;51.090;-1.786;2023-05-23T11:06:00;5.68;;;4.65;;
53245;SDS011;39569;51.090;-1.786;2023-05-23T11:08:30;12.30;;;5.82;;
53245;SDS011;39569;51.090;-1.786;2023-05-23T11:11:03;6.93;;;5.00;;
53245;SDS011;39569;51.090;-1.786;2023-05-23T11:16:24;12.73;;;4.88;;
53245;SDS011;39569;51.090;-1.786;2023-05-23T11:18:56;7.20;;;5.28;;
53245;SDS011;39569;51.090;-1.786;2023-05-23T11:21:48;7.15;;;4.82;;
53245;SDS011;39569;51.090;-1.786;2023-05-23T11:24:17;9.68;;;3.88;;
53245;SDS011;39569;51.090;-1.786;2023-05-23T11:26:50;8.25;;;5.85;;
53245;SDS011;39569;51.090;-1.786;2023-05-23T11:29:19;7.63;;;4.43;;
53245;SDS011;39569;51.090;-1.786;2023-05-23T11:31:47;8.73;;;5.45;;
53245;SDS011;39569;51.090;-1.786;2023-05-23T11:34:19;13.65;;;4.80;;
53245;SDS011;39569;51.090;-1.786;2023-05-23T11:36:46;15.50;;;7.03;;
53245;SDS011;39569;51.090;-1.786;2023-05-23T11:39:32;8.77;;;5.10;;
53245;SDS011;39569;51.090;-1.786;2023-05-23T11:42:21;15.88;;;6.88;;
53245;SDS011;39569;51.090;-1.786;2023-05-23T11:44:59;28.63;;;13.00;;
53245;SDS011;39569;51.090;-1.786;2023-05-23T11:47:50;34.47;;;7.28;;
53245;SDS011;39569;51.090;-1.786;2023-05-23T11:50:18;9.30;;;5.07;;
53245;SDS011;39569;51.090;-1.786;2023-05-23T11:52:45;8.82;;;5.60;;
53245;SDS011;39569;51.090;-1.786;2023-05-23T11:55:15;6.20;;;4.80;;
53245;SDS011;39569;51.090;-1.786;2023-05-23T11:57:43;6.80;;;4.95;;
53245;SDS011;39569;51.090;-1.786;2023-05-23T12:03:36;7.70;;;5.28;;
53245;SDS011;39569;51.090;-1.786;2023-05-23T12:06:38;11.68;;;4.85;;
53245;SDS011;39569;51.090;-1.786;2023-05-23T12:09:05;10.43;;;5.35;;
53245;SDS011;39569;51.090;-1.786;2023-05-23T12:11:33;5.95;;;4.43;;
53245;SDS011;39569;51.090;-1.786;2023-05-23T12:14:08;16.85;;;4.65;;
53245;SDS011;39569;51.090;-1.786;2023-05-23T12:17:08;7.35;;;4.18;;
53245;SDS011;39569;51.090;-1.786;2023-05-23T12:19:37;9.77;;;4.38;;
53245;SDS011;39569;51.090;-1.786;2023-05-23T12:22:04;5.32;;;4.40;;
53245;SDS011;39569;51.090;-1.786;2023-05-23T12:24:32;9.23;;;4.15;;
53245;SDS011;39569;51.090;-1.786;2023-05-23T12:27:00;12.38;;;4.43;;
53245;SDS011;39569;51.090;-1.786;2023-05-23T12:29:28;8.00;;;4.75;;
53245;SDS011;39569;51.090;-1.786;2023-05-23T12:31:56;8.13;;;3.97;;
53245;SDS011;39569;51.090;-1.786;2023-05-23T12:34:24;9.48;;;4.15;;
53245;SDS011;39569;51.090;-1.786;2023-05-23T12:36:54;13.45;;;4.10;;
53245;SDS011;39569;51.090;-1.786;2023-05-23T12:39:25;6.45;;;4.25;;
53245;SDS011;39569;51.090;-1.786;2023-05-23T12:41:53;13.98;;;4.72;;
53245;SDS011;39569;51.090;-1.786;2023-05-23T12:44:22;11.40;;;5.35;;
53245;SDS011;39569;51.090;-1.786;2023-05-23T12:46:49;7.60;;;4.03;;
53245;SDS011;39569;51.090;-1.786;2023-05-23T12:49:16;9.80;;;4.00;;
53245;SDS011;39569;51.090;-1.786;2023-05-23T12:51:43;6.93;;;3.85;;
53245;SDS011;39569;51.090;-1.786;2023-05-23T12:54:11;3.67;;;3.33;;
53245;SDS011;39569;51.090;-1.786;2023-05-23T12:56:38;4.80;;;3.97;;
53245;SDS011;39569;51.090;-1.786;2023-05-23T12:59:05;7.35;;;3.53;;
53245;SDS011;39569;51.090;-1.786;2023-05-23T13:01:32;9.63;;;4.78;;
53245;SDS011;39569;51.090;-1.786;2023-05-23T13:03:59;5.85;;;3.72;;
53245;SDS011;39569;51.090;-1.786;2023-05-23T13:06:26;9.77;;;4.63;;
53245;SDS011;39569;51.090;-1.786;2023-05-23T13:08:53;5.88;;;3.85;;
53245;SDS011;39569;51.090;-1.786;2023-05-23T13:11:22;7.10;;;5.15;;
53245;SDS011;39569;51.090;-1.786;2023-05-23T13:13:49;7.68;;;3.95;;
53245;SDS011;39569;51.090;-1.786;2023-05-23T13:16:16;8.68;;;4.25;;
53245;SDS011;39569;51.090;-1.786;2023-05-23T13:18:43;9.85;;;4.70;;
53245;SDS011;39569;51.090;-1.786;2023-05-23T13:21:10;8.02;;;3.83;;
53245;SDS011;39569;51.090;-1.786;2023-05-23T13:23:37;7.82;;;4.57;;
53245;SDS011;39569;51.090;-1.786;2023-05-23T13:26:04;4.72;;;3.65;;
53245;SDS011;39569;51.090;-1.786;2023-05-23T13:28:33;7.00;;;3.58;;
53245;SDS011;39569;51.090;-1.786;2023-05-23T13:31:00;7.55;;;4.15;;
53245;SDS011;39569;51.090;-1.786;2023-05-23T13:33:27;7.65;;;4.90;;
53245;SDS011;39569;51.090;-1.786;2023-05-23T13:35:55;6.30;;;4.10;;
53245;SDS011;39569;51.090;-1.786;2023-05-23T13:38:21;11.07;;;4.45;;
53245;SDS011;39569;51.090;-1.786;2023-05-23T13:40:48;9.23;;;5.00;;
53245;SDS011;39569;51.090;-1.786;2023-05-23T13:43:16;12.23;;;4.47;;
53245;SDS011;39569;51.090;-1.786;2023-05-23T13:45:45;8.98;;;4.53;;
53245;SDS011;39569;51.090;-1.786;2023-05-23T13:48:12;9.85;;;4.75;;
53245;SDS011;39569;51.090;-1.786;2023-05-23T13:50:39;5.93;;;4.00;;
53245;SDS011;39569;51.090;-1.786;2023-05-23T13:53:05;10.82;;;5.03;;
53245;SDS011;39569;51.090;-1.786;2023-05-23T13:55:38;5.03;;;4.05;;
53245;SDS011;39569;51.090;-1.786;2023-05-23T13:58:05;5.60;;;3.38;;
53245;SDS011;39569;51.090;-1.786;2023-05-23T14:00:32;5.90;;;4.13;;
53245;SDS011;39569;51.090;-1.786;2023-05-23T14:03:00;8.15;;;4.25;;
53245;SDS011;39569;51.090;-1.786;2023-05-23T14:05:27;6.15;;;4.50;;
53245;SDS011;39569;51.090;-1.786;2023-05-23T14:07:53;5.90;;;4.45;;
53245;SDS011;39569;51.090;-1.786;2023-05-23T14:10:20;5.82;;;4.65;;
53245;SDS011;39569;51.090;-1.786;2023-05-23T14:12:47;5.35;;;3.53;;
53245;SDS011;39569;51.090;-1.786;2023-05-23T14:15:15;5.65;;;3.72;;
53245;SDS011;39569;51.090;-1.786;2023-05-23T14:17:41;5.13;;;4.07;;
53245;SDS011;39569;51.090;-1.786;2023-05-23T14:20:10;24.92;;;5.28;;
53245;SDS011;39569;51.090;-1.786;2023-05-23T14:22:37;5.03;;;3.83;;
53245;SDS011;39569;51.090;-1.786;2023-05-23T14:25:04;6.78;;;3.22;;
53245;SDS011;39569;51.090;-1.786;2023-05-23T14:27:32;5.55;;;4.20;;
53245;SDS011;39569;51.090;-1.786;2023-05-23T14:29:59;4.38;;;2.88;;
53245;SDS011;39569;51.090;-1.786;2023-05-23T14:32:25;5.65;;;4.13;;
53245;SDS011;39569;51.090;-1.786;2023-05-23T14:34:52;6.10;;;3.35;;
53245;SDS011;39569;51.090;-1.786;2023-05-23T14:37:20;6.10;;;4.28;;
53245;SDS011;39569;51.090;-1.786;2023-05-23T14:39:47;8.20;;;4.13;;
53245;SDS011;39569;51.090;-1.786;2023-05-23T14:42:14;4.22;;;3.78;;